createdAt,value
2018-10-06T00:00:21.741Z,94.30
2018-10-06T00:02:50.062Z,94.40
2018-10-06T00:05:18.326Z,94.40
2018-10-06T00:07:46.626Z,94.40
2018-10-06T00:10:14.949Z,94.50
2018-10-06T00:12:43.195Z,94.60
2018-10-06T00:15:11.813Z,94.60
2018-10-06T00:17:40.522Z,94.70
2018-10-06T00:20:09.394Z,94.70
2018-10-06T00:22:37.675Z,94.70
2018-10-06T00:25:06.139Z,94.80
2018-10-06T00:27:34.349Z,94.90
2018-10-06T00:30:02.627Z,95.00
2018-10-06T00:32:30.859Z,95.00
2018-10-06T00:34:59.190Z,95.00
2018-10-06T00:37:27.536Z,95.00
2018-10-06T00:39:55.729Z,95.10
2018-10-06T00:42:23.994Z,95.20
2018-10-06T00:44:52.264Z,95.30
2018-10-06T00:47:20.581Z,95.30
2018-10-06T00:49:48.839Z,95.30
2018-10-06T00:52:17.878Z,95.40
2018-10-06T00:54:46.149Z,95.40
2018-10-06T00:57:14.438Z,95.40
2018-10-06T00:59:42.672Z,95.40
2018-10-06T01:02:10.954Z,95.80
2018-10-06T01:04:39.218Z,95.50
2018-10-06T01:07:07.415Z,95.50
2018-10-06T01:09:35.650Z,95.50
2018-10-06T01:12:03.879Z,95.40
2018-10-06T01:14:32.098Z,95.50
2018-10-06T01:17:00.348Z,95.50
2018-10-06T01:19:28.687Z,95.50
2018-10-06T01:21:56.910Z,95.40
2018-10-06T01:24:25.103Z,95.40
2018-10-06T01:26:53.368Z,95.40
2018-10-06T01:29:21.613Z,95.40
2018-10-06T01:31:49.845Z,95.40
2018-10-06T01:34:18.865Z,95.50
2018-10-06T01:36:47.142Z,95.50
2018-10-06T01:39:15.390Z,95.60
2018-10-06T01:41:43.678Z,95.60
2018-10-06T01:44:11.940Z,95.70
2018-10-06T01:46:40.145Z,95.70
2018-10-06T01:49:08.353Z,95.70
2018-10-06T01:51:36.666Z,95.80
2018-10-06T01:54:04.899Z,95.80
2018-10-06T01:56:33.181Z,95.80
2018-10-06T01:59:01.442Z,95.80
2018-10-06T02:01:29.679Z,95.90
2018-10-06T02:03:57.899Z,96.00
2018-10-06T02:06:26.092Z,96.00
2018-10-06T02:08:54.618Z,96.10
2018-10-06T02:11:22.884Z,96.10
2018-10-06T02:13:51.111Z,96.10
2018-10-06T02:16:19.381Z,96.10
2018-10-06T02:18:47.594Z,96.10
2018-10-06T02:21:15.830Z,96.10
2018-10-06T02:23:44.058Z,96.10
2018-10-06T02:26:12.383Z,96.20
2018-10-06T02:28:40.642Z,96.10
2018-10-06T02:31:08.870Z,96.10
2018-10-06T02:33:37.190Z,96.10
2018-10-06T02:36:05.439Z,96.50
2018-10-06T02:38:33.681Z,96.20
2018-10-06T02:41:01.931Z,96.30
2018-10-06T02:43:30.145Z,96.30
2018-10-06T02:45:58.469Z,96.30
2018-10-06T02:48:26.671Z,96.30
2018-10-06T02:50:54.886Z,96.30
2018-10-06T02:53:23.094Z,96.30
2018-10-06T02:55:51.360Z,96.30
2018-10-06T02:58:19.606Z,96.30
2018-10-06T03:00:47.825Z,96.30
2018-10-06T03:03:16.074Z,96.40
2018-10-06T03:05:44.313Z,96.40
2018-10-06T03:08:13.026Z,96.40
2018-10-06T03:10:41.316Z,96.40
2018-10-06T03:13:09.572Z,96.40
2018-10-06T03:15:37.813Z,96.50
2018-10-06T03:18:06.030Z,96.50
2018-10-06T03:20:34.262Z,96.50
2018-10-06T03:23:02.478Z,96.50
2018-10-06T03:25:30.763Z,96.50
2018-10-06T03:27:58.985Z,96.50
2018-10-06T03:30:27.197Z,96.60
2018-10-06T03:32:55.419Z,96.50
2018-10-06T03:35:23.618Z,96.50
2018-10-06T03:37:51.847Z,96.50
2018-10-06T03:40:20.067Z,96.60
2018-10-06T03:42:48.257Z,96.60
2018-10-06T03:45:16.545Z,96.60
2018-10-06T03:47:44.749Z,96.60
2018-10-06T03:50:12.960Z,96.70
2018-10-06T03:52:41.172Z,96.60
2018-10-06T03:55:09.678Z,96.70
2018-10-06T03:57:37.865Z,96.70
2018-10-06T04:00:06.066Z,96.70
2018-10-06T04:02:34.271Z,96.70
2018-10-06T04:05:02.478Z,96.70
2018-10-06T04:07:30.718Z,96.70
2018-10-06T04:09:58.927Z,96.70
2018-10-06T04:12:27.162Z,96.70
2018-10-06T04:14:55.456Z,96.80
2018-10-06T04:17:23.658Z,96.70
2018-10-06T04:22:26.581Z,96.70
2018-10-06T04:24:54.820Z,96.80
2018-10-06T04:27:23.051Z,96.90
2018-10-06T04:29:51.299Z,96.90
2018-10-06T04:32:19.506Z,96.90
2018-10-06T04:34:47.752Z,97.00
2018-10-06T04:37:15.987Z,97.00
2018-10-06T04:39:44.182Z,97.00
2018-10-06T04:42:12.493Z,97.10
2018-10-06T04:44:40.789Z,97.10
2018-10-06T04:47:09.003Z,97.00
2018-10-06T04:49:37.232Z,97.10
2018-10-06T04:52:05.638Z,97.10
2018-10-06T04:54:33.911Z,97.10
2018-10-06T04:57:02.133Z,97.10
2018-10-06T04:59:30.432Z,97.20
2018-10-06T05:01:58.940Z,97.20
2018-10-06T05:04:27.207Z,97.00
2018-10-06T05:06:55.502Z,97.20
2018-10-06T05:09:23.792Z,97.20
2018-10-06T05:11:52.016Z,97.20
2018-10-06T05:14:20.303Z,97.30
2018-10-06T05:16:48.518Z,97.30
2018-10-06T05:19:16.779Z,97.30
2018-10-06T05:21:45.638Z,97.30
2018-10-06T05:24:13.875Z,97.30
2018-10-06T05:26:42.158Z,97.30
2018-10-06T05:29:10.382Z,97.30
2018-10-06T05:31:38.739Z,97.30
2018-10-06T05:34:07.135Z,97.30
2018-10-06T05:36:35.358Z,97.30
2018-10-06T05:39:04.423Z,97.30
2018-10-06T05:41:32.781Z,97.30
2018-10-06T05:44:02.756Z,97.30
2018-10-06T05:46:31.697Z,97.20
2018-10-06T05:49:00.850Z,97.30
2018-10-06T05:51:29.734Z,97.30
2018-10-06T05:53:58.399Z,97.20
2018-10-06T05:56:27.235Z,97.20
2018-10-06T05:58:55.846Z,97.10
2018-10-06T06:01:24.641Z,97.10
2018-10-06T06:03:53.373Z,97.40
2018-10-06T06:06:22.128Z,97.10
2018-10-06T06:08:50.359Z,97.10
2018-10-06T06:11:18.839Z,97.10
2018-10-06T06:13:49.519Z,96.90
2018-10-06T06:16:18.136Z,96.90
2018-10-06T06:18:47.026Z,96.80
2018-10-06T06:21:15.885Z,96.90
2018-10-06T06:23:44.829Z,96.60
2018-10-06T06:26:13.846Z,96.40
2018-10-06T06:28:42.385Z,96.50
2018-10-06T06:31:10.792Z,96.30
2018-10-06T06:33:39.006Z,96.30
2018-10-06T06:36:07.729Z,96.20
2018-10-06T06:38:36.378Z,96.30
2018-10-06T06:41:05.015Z,96.20
2018-10-06T06:43:33.628Z,96.40
2018-10-06T06:46:01.817Z,96.30
2018-10-06T06:48:30.057Z,96.30
2018-10-06T06:50:58.274Z,96.40
2018-10-06T06:53:26.546Z,96.40
2018-10-06T06:55:54.778Z,96.40
2018-10-06T06:58:23.035Z,96.30
2018-10-06T07:00:51.259Z,95.80
2018-10-06T07:03:19.497Z,95.80
2018-10-06T07:05:47.842Z,95.60
2018-10-06T07:08:16.100Z,95.40
2018-10-06T07:10:44.322Z,95.50
2018-10-06T07:13:12.567Z,95.60
2018-10-06T07:15:40.810Z,95.70
2018-10-06T07:18:09.020Z,95.90
2018-10-06T07:20:37.258Z,96.20
2018-10-06T07:23:05.466Z,95.90
2018-10-06T07:25:33.767Z,95.90
2018-10-06T07:28:01.971Z,95.90
2018-10-06T07:30:30.197Z,95.90
2018-10-06T07:32:58.477Z,95.80
2018-10-06T07:35:26.711Z,95.80
2018-10-06T07:37:54.962Z,95.80
2018-10-06T07:40:23.246Z,95.80
2018-10-06T07:42:51.745Z,95.70
2018-10-06T07:45:19.982Z,95.60
2018-10-06T07:47:48.235Z,95.50
2018-10-06T07:50:16.454Z,95.50
2018-10-06T07:52:44.695Z,95.30
2018-10-06T07:55:12.946Z,95.20
2018-10-06T07:57:41.169Z,95.20
2018-10-06T08:00:09.386Z,95.00
2018-10-06T08:02:37.582Z,94.90
2018-10-06T08:05:05.842Z,94.70
2018-10-06T08:07:34.030Z,94.50
2018-10-06T08:10:02.232Z,94.40
2018-10-06T08:12:30.466Z,94.40
2018-10-06T08:14:58.682Z,94.20
2018-10-06T08:17:26.899Z,94.10
2018-10-06T08:19:55.170Z,94.50
2018-10-06T08:22:24.914Z,94.00
2018-10-06T08:24:53.200Z,93.80
2018-10-06T08:27:21.440Z,93.70
2018-10-06T08:29:49.728Z,93.50
2018-10-06T08:32:17.950Z,93.40
2018-10-06T08:34:46.179Z,93.30
2018-10-06T08:37:14.423Z,93.10
2018-10-06T08:39:42.675Z,93.00
2018-10-06T08:42:10.949Z,93.00
2018-10-06T08:44:39.734Z,92.80
2018-10-06T08:47:07.995Z,92.70
2018-10-06T08:49:36.257Z,92.50
2018-10-06T08:52:04.622Z,92.20
2018-10-06T08:54:32.900Z,92.10
2018-10-06T08:57:01.110Z,92.00
2018-10-06T08:59:29.376Z,91.80
2018-10-06T09:01:57.679Z,91.50
2018-10-06T09:04:25.988Z,91.30
2018-10-06T09:06:54.138Z,91.00
2018-10-06T09:09:22.458Z,90.90
2018-10-06T09:11:50.713Z,90.70
2018-10-06T09:14:18.988Z,90.90
2018-10-06T09:16:47.262Z,90.40
2018-10-06T09:19:15.491Z,90.30
2018-10-06T09:21:43.720Z,90.20
2018-10-06T09:24:11.978Z,90.10
2018-10-06T09:26:40.288Z,90.00
2018-10-06T09:29:08.596Z,89.60
2018-10-06T09:31:36.866Z,89.10
2018-10-06T09:34:05.104Z,89.00
2018-10-06T09:36:33.368Z,88.70
2018-10-06T09:39:01.641Z,88.30
2018-10-06T09:41:29.901Z,88.10
2018-10-06T09:43:58.120Z,87.80
2018-10-06T09:46:26.342Z,87.50
2018-10-06T09:48:54.566Z,87.60
2018-10-06T09:51:23.038Z,87.20
2018-10-06T09:53:51.375Z,87.10
2018-10-06T09:56:19.538Z,86.70
2018-10-06T09:58:47.956Z,86.40
2018-10-06T10:01:21.709Z,86.30
2018-10-06T10:03:55.509Z,86.00
2018-10-06T10:06:23.779Z,85.70
2018-10-06T10:08:52.040Z,85.50
2018-10-06T10:11:20.632Z,85.20
2018-10-06T10:13:49.118Z,85.00
2018-10-06T10:16:17.396Z,84.60
2018-10-06T10:18:45.706Z,84.30
2018-10-06T10:21:14.001Z,83.90
2018-10-06T10:23:42.247Z,83.40
2018-10-06T10:26:10.490Z,83.10
2018-10-06T10:28:38.809Z,82.70
2018-10-06T10:31:07.095Z,82.30
2018-10-06T10:33:35.357Z,81.60
2018-10-06T10:36:03.647Z,80.80
2018-10-06T10:38:32.090Z,80.90
2018-10-06T10:41:00.344Z,80.30
2018-10-06T10:43:28.599Z,80.10
2018-10-06T10:45:56.920Z,79.50
2018-10-06T10:48:25.200Z,78.90
2018-10-06T10:50:53.352Z,78.40
2018-10-06T10:53:21.630Z,78.30
2018-10-06T10:55:49.925Z,77.60
2018-10-06T10:58:18.229Z,76.90
2018-10-06T11:00:46.517Z,76.80
2018-10-06T11:03:14.753Z,76.60
2018-10-06T11:05:42.989Z,76.90
2018-10-06T11:08:11.274Z,75.90
2018-10-06T11:10:39.702Z,76.00
2018-10-06T11:13:08.240Z,75.70
2018-10-06T11:15:36.565Z,75.10
2018-10-06T11:18:05.009Z,74.70
2018-10-06T11:20:33.246Z,74.30
2018-10-06T11:23:01.664Z,74.10
2018-10-06T11:25:29.911Z,73.70
2018-10-06T11:27:58.107Z,73.40
2018-10-06T11:30:26.400Z,73.10
2018-10-06T11:32:54.653Z,73.00
2018-10-06T11:35:22.997Z,72.50
2018-10-06T11:37:51.403Z,72.30
2018-10-06T11:40:19.578Z,71.90
2018-10-06T11:42:47.839Z,71.10
2018-10-06T11:45:16.099Z,70.80
2018-10-06T11:47:44.361Z,69.60
2018-10-06T11:50:12.640Z,66.70
2018-10-06T11:52:41.394Z,65.30
2018-10-06T11:55:09.667Z,62.80
2018-10-06T11:57:37.945Z,61.70
2018-10-06T12:00:06.980Z,59.70
2018-10-06T12:02:35.885Z,58.80
2018-10-06T12:05:04.226Z,58.20
2018-10-06T12:07:32.476Z,57.20
2018-10-06T12:10:00.722Z,53.70
2018-10-06T12:12:29.310Z,53.50
2018-10-06T12:14:57.727Z,52.40
2018-10-06T12:17:26.030Z,52.80
2018-10-06T12:19:54.446Z,52.60
2018-10-06T12:22:22.659Z,52.50
2018-10-06T12:24:57.502Z,52.50
2018-10-06T12:27:25.764Z,52.10
2018-10-06T12:29:54.014Z,52.00
2018-10-06T12:32:22.272Z,52.60
2018-10-06T12:34:50.625Z,52.80
2018-10-06T12:37:18.796Z,52.90
2018-10-06T12:39:47.084Z,52.50
2018-10-06T12:42:15.339Z,52.60
2018-10-06T12:44:43.586Z,52.60
2018-10-06T12:47:11.829Z,52.80
2018-10-06T12:49:40.063Z,53.00
2018-10-06T12:52:08.288Z,53.00
2018-10-06T12:54:36.589Z,52.70
2018-10-06T12:57:04.918Z,52.90
2018-10-06T12:59:33.151Z,52.90
2018-10-06T13:02:01.379Z,53.00
2018-10-06T13:04:29.614Z,53.30
2018-10-06T13:06:57.819Z,51.90
2018-10-06T13:09:26.026Z,51.20
2018-10-06T13:11:54.305Z,51.90
2018-10-06T13:14:22.504Z,50.90
2018-10-06T13:16:50.706Z,50.50
2018-10-06T13:19:18.959Z,50.30
2018-10-06T13:21:47.186Z,50.10
2018-10-06T13:24:15.443Z,49.90
2018-10-06T13:26:43.703Z,49.70
2018-10-06T13:29:11.944Z,49.70
2018-10-06T13:31:40.184Z,49.80
2018-10-06T13:34:08.429Z,49.70
2018-10-06T13:36:36.652Z,49.50
2018-10-06T13:39:06.813Z,49.40
2018-10-06T13:41:35.015Z,49.40
2018-10-06T13:44:03.225Z,49.30
2018-10-06T13:46:31.497Z,49.50
2018-10-06T13:48:59.686Z,49.60
2018-10-06T13:51:28.186Z,49.60
2018-10-06T13:53:57.187Z,49.80
2018-10-06T13:56:25.461Z,49.90
2018-10-06T13:58:53.684Z,50.00
2018-10-06T14:01:21.910Z,50.00
2018-10-06T14:03:50.187Z,50.20
2018-10-06T14:06:18.385Z,50.20
2018-10-06T14:08:46.629Z,50.20
2018-10-06T14:11:14.906Z,50.20
2018-10-06T14:13:43.146Z,50.60
2018-10-06T14:16:11.366Z,50.50
2018-10-06T14:18:39.555Z,50.10
2018-10-06T14:21:07.807Z,50.10
2018-10-06T14:23:36.066Z,50.00
2018-10-06T14:26:04.298Z,50.20
2018-10-06T14:28:32.517Z,50.40
2018-10-06T14:31:00.749Z,50.40
2018-10-06T14:33:29.203Z,50.30
2018-10-06T14:35:57.424Z,50.30
2018-10-06T14:38:25.642Z,50.40
2018-10-06T14:40:53.957Z,50.30
2018-10-06T14:43:22.195Z,50.10
2018-10-06T14:45:50.586Z,50.10
2018-10-06T14:48:18.811Z,50.00
2018-10-06T14:50:47.130Z,50.10
2018-10-06T14:53:15.374Z,50.30
2018-10-06T14:55:43.592Z,50.20
2018-10-06T14:58:11.903Z,49.90
2018-10-06T15:00:40.109Z,50.10
2018-10-06T15:03:08.323Z,50.40
2018-10-06T15:05:36.526Z,50.40
2018-10-06T15:08:04.866Z,50.20
2018-10-06T15:10:33.163Z,50.20
2018-10-06T15:13:07.823Z,50.00
2018-10-06T15:15:36.134Z,50.20
2018-10-06T15:18:04.402Z,50.40
2018-10-06T15:20:32.658Z,50.40
2018-10-06T15:23:00.943Z,50.50
2018-10-06T15:25:29.162Z,50.90
2018-10-06T15:27:57.425Z,51.00
2018-10-06T15:30:25.664Z,51.40
2018-10-06T15:32:53.964Z,51.40
2018-10-06T15:35:22.235Z,51.40
2018-10-06T15:37:50.555Z,51.50
2018-10-06T15:40:18.736Z,51.50
2018-10-06T15:42:46.948Z,51.90
2018-10-06T15:45:15.175Z,52.10
2018-10-06T15:47:43.440Z,52.30
2018-10-06T15:50:11.682Z,52.50
2018-10-06T15:52:39.913Z,52.80
2018-10-06T15:55:08.163Z,52.90
2018-10-06T15:57:36.447Z,53.10
2018-10-06T16:00:04.713Z,53.30
2018-10-06T16:02:33.015Z,53.50
2018-10-06T16:05:01.179Z,53.80
2018-10-06T16:07:29.394Z,54.00
2018-10-06T16:09:57.681Z,54.10
2018-10-06T16:12:25.949Z,54.40
2018-10-06T16:14:54.170Z,54.60
2018-10-06T16:17:22.779Z,54.80
2018-10-06T16:19:51.032Z,54.90
2018-10-06T16:22:19.240Z,55.20
2018-10-06T16:24:47.601Z,55.40
2018-10-06T16:27:15.890Z,55.70
2018-10-06T16:29:44.188Z,55.80
2018-10-06T16:32:12.415Z,56.10
2018-10-06T16:34:40.611Z,56.30
2018-10-06T16:37:08.948Z,56.60
2018-10-06T16:39:37.151Z,56.90
2018-10-06T16:42:05.333Z,57.30
2018-10-06T16:44:33.542Z,57.60
2018-10-06T16:47:01.760Z,58.00
2018-10-06T16:49:30.020Z,58.40
2018-10-06T16:51:58.342Z,58.80
2018-10-06T16:54:26.559Z,59.30
2018-10-06T16:56:54.846Z,59.70
2018-10-06T16:59:23.119Z,60.00
2018-10-06T17:01:51.605Z,60.50
2018-10-06T17:04:19.843Z,60.90
2018-10-06T17:06:48.079Z,61.40
2018-10-06T17:09:16.445Z,61.70
2018-10-06T17:11:44.746Z,62.10
2018-10-06T17:14:16.064Z,62.70
2018-10-06T17:16:45.124Z,63.10
2018-10-06T17:19:13.454Z,63.50
2018-10-06T17:21:41.773Z,64.00
2018-10-06T17:24:10.025Z,64.50
2018-10-06T17:26:38.206Z,64.80
2018-10-06T17:29:06.495Z,65.10
2018-10-06T17:31:34.805Z,65.40
2018-10-06T17:34:03.051Z,65.60
2018-10-06T17:36:31.613Z,65.90
2018-10-06T17:39:00.185Z,66.10
2018-10-06T17:41:28.471Z,66.40
2018-10-06T17:43:57.087Z,66.60
2018-10-06T17:46:25.467Z,66.90
2018-10-06T17:48:53.790Z,67.20
2018-10-06T17:51:22.167Z,67.60
2018-10-06T17:53:50.385Z,67.90
2018-10-06T17:56:19.089Z,68.00
2018-10-06T17:58:47.329Z,68.20
2018-10-06T18:01:15.723Z,68.50
2018-10-06T18:03:43.995Z,68.80
2018-10-06T18:06:12.213Z,69.10
2018-10-06T18:08:40.430Z,69.20
2018-10-06T18:11:08.810Z,69.40
2018-10-06T18:13:37.088Z,69.70
2018-10-06T18:16:08.580Z,70.10
2018-10-06T18:18:36.858Z,70.10
2018-10-06T18:21:05.150Z,70.60
2018-10-06T18:23:33.858Z,70.90
2018-10-06T18:26:02.150Z,71.10
2018-10-06T18:28:31.294Z,71.40
2018-10-06T18:30:59.518Z,71.40
2018-10-06T18:33:27.728Z,71.70
2018-10-06T18:35:56.030Z,71.90
2018-10-06T18:38:24.286Z,72.10
2018-10-06T18:40:52.605Z,72.30
2018-10-06T18:43:20.890Z,72.50
2018-10-06T18:45:49.115Z,72.70
2018-10-06T18:48:17.397Z,72.90
2018-10-06T18:50:45.622Z,73.30
2018-10-06T18:53:15.501Z,73.60
2018-10-06T18:55:43.875Z,73.90
2018-10-06T18:58:12.137Z,74.30
2018-10-06T19:00:40.386Z,74.70
2018-10-06T19:03:08.645Z,75.00
2018-10-06T19:05:36.930Z,75.70
2018-10-06T19:08:05.956Z,76.00
2018-10-06T19:10:34.168Z,76.30
2018-10-06T19:13:02.372Z,76.60
2018-10-06T19:15:30.689Z,77.00
2018-10-06T19:17:58.981Z,77.40
2018-10-06T19:20:27.263Z,78.00
2018-10-06T19:22:56.146Z,78.20
2018-10-06T19:25:24.383Z,78.40
2018-10-06T19:27:53.584Z,78.50
2018-10-06T19:30:22.020Z,78.90
2018-10-06T19:32:50.376Z,79.30
2018-10-06T19:35:18.716Z,79.60
2018-10-06T19:37:48.039Z,79.80
2018-10-06T19:40:16.267Z,80.20
2018-10-06T19:42:44.487Z,80.40
2018-10-06T19:45:12.730Z,80.70
2018-10-06T19:47:41.091Z,80.90
2018-10-06T19:50:09.336Z,81.40
2018-10-06T19:52:38.542Z,81.40
2018-10-06T19:55:08.870Z,81.60
2018-10-06T19:57:40.774Z,81.90
2018-10-06T20:00:09.111Z,82.30
2018-10-06T20:02:37.294Z,82.60
2018-10-06T20:05:05.535Z,82.80
2018-10-06T20:07:33.761Z,83.10
2018-10-06T20:10:02.014Z,83.50
2018-10-06T20:12:30.328Z,83.70
2018-10-06T20:14:58.770Z,83.90
2018-10-06T20:17:26.983Z,84.30
2018-10-06T20:19:55.251Z,84.90
2018-10-06T20:22:23.570Z,85.20
2018-10-06T20:24:51.802Z,85.40
2018-10-06T20:27:20.024Z,85.80
2018-10-06T20:29:48.274Z,86.10
2018-10-06T20:32:16.535Z,86.20
2018-10-06T20:34:45.011Z,86.40
2018-10-06T20:37:13.300Z,86.60
2018-10-06T20:39:41.545Z,86.80
2018-10-06T20:42:09.871Z,87.20
2018-10-06T20:44:38.996Z,87.60
2018-10-06T20:47:07.229Z,87.70
2018-10-06T20:49:35.473Z,87.80
2018-10-06T20:52:03.751Z,88.00
2018-10-06T20:54:32.273Z,88.00
2018-10-06T20:57:00.530Z,88.30
2018-10-06T20:59:28.869Z,88.80
2018-10-06T21:01:57.233Z,89.00
2018-10-06T21:04:25.486Z,89.40
2018-10-06T21:07:56.783Z,89.20
2018-10-06T21:10:25.105Z,89.20
2018-10-06T21:12:53.382Z,89.50
2018-10-06T21:15:21.715Z,89.90
2018-10-06T21:17:50.042Z,90.00
2018-10-06T21:20:18.314Z,90.10
2018-10-06T21:22:46.532Z,90.20
2018-10-06T21:25:14.798Z,90.20
2018-10-06T21:27:43.046Z,90.30
2018-10-06T21:30:11.340Z,90.40
2018-10-06T21:32:39.614Z,90.40
2018-10-06T21:35:07.835Z,90.50
2018-10-06T21:37:36.108Z,90.50
2018-10-06T21:40:04.374Z,90.70
2018-10-06T21:42:32.712Z,90.70
2018-10-06T21:45:01.707Z,90.80
2018-10-06T21:47:30.726Z,91.00
2018-10-06T21:49:59.203Z,91.10
2018-10-06T21:52:28.210Z,91.20
2018-10-06T21:54:56.627Z,91.30
2018-10-06T21:57:24.857Z,91.40
2018-10-06T21:59:53.103Z,91.50
2018-10-06T22:02:21.393Z,91.50
2018-10-06T22:04:49.684Z,91.50
2018-10-06T22:07:19.059Z,91.50
2018-10-06T22:09:47.382Z,91.50
2018-10-06T22:12:17.859Z,91.60
2018-10-06T22:14:46.158Z,91.70
2018-10-06T22:17:14.629Z,91.80
2018-10-06T22:19:43.097Z,91.90
2018-10-06T22:22:11.352Z,91.90
2018-10-06T22:24:39.590Z,92.00
2018-10-06T22:27:08.594Z,92.00
2018-10-06T22:29:39.738Z,92.00
2018-10-06T22:32:08.394Z,92.10
2018-10-06T22:34:36.782Z,92.20
2018-10-06T22:37:05.235Z,92.40
2018-10-06T22:39:33.636Z,92.50
2018-10-06T22:42:01.861Z,92.60
2018-10-06T22:44:30.111Z,92.60
2018-10-06T22:46:58.450Z,92.60
2018-10-06T22:49:27.854Z,92.80
2018-10-06T22:51:56.095Z,93.00
2018-10-06T22:54:25.071Z,93.20
2018-10-06T22:56:53.376Z,93.20
2018-10-06T22:59:21.655Z,93.10
2018-10-06T23:01:50.065Z,93.00
2018-10-06T23:04:18.937Z,93.40
2018-10-06T23:06:47.215Z,93.10
2018-10-06T23:09:15.530Z,93.20
2018-10-06T23:11:43.908Z,93.50
2018-10-06T23:14:12.179Z,93.80
2018-10-06T23:16:40.574Z,93.60
2018-10-06T23:19:08.996Z,93.40
2018-10-06T23:21:37.268Z,93.30
2018-10-06T23:24:06.470Z,93.30
2018-10-06T23:26:35.127Z,93.30
2018-10-06T23:29:03.461Z,93.50
2018-10-06T23:31:31.758Z,93.50
2018-10-06T23:34:00.027Z,93.50
2018-10-06T23:36:28.243Z,93.50
2018-10-06T23:38:56.461Z,93.30
2018-10-06T23:41:24.752Z,93.30
2018-10-06T23:43:52.988Z,93.30
2018-10-06T23:46:22.427Z,93.30
2018-10-06T23:48:51.208Z,93.40
2018-10-06T23:51:19.531Z,93.40
2018-10-06T23:53:47.740Z,93.30
2018-10-06T23:56:16.749Z,93.10
2018-10-06T23:58:44.959Z,93.20
